Latest Weather Observations for Mullion

IDN60901

Issued at 5:21 am EST Monday 6 April 2020 (issued every 10 minutes, with the page automatically refreshed every 10 minutes)

About weather observations | Map of Canberra area stations | Latest observations for Canberra area | Other Formats
Station Details ID: 250070 Name: MULLION (PCS) Lat: -35.11 Lon: 148.85 Height: 750.0 m

Portable automatic weather stations (PAWS) are operated by other organisations, such as Fire and Emergency Services, and are included here by agreement. Portable stations may be deployed to a location for a short period and their location may be subject to change without notice. Wind observations from these stations are provided from heights of either three (3) or ten (10) metres above ground level (AGL).

Data from the previous 72 hours. | See also: Recent months for locations in Aust Capital Territory
Date/Time
EST
Temp
°C
App
Temp
°C
Dew
Point
°C
Rel
Hum
%
Delta-T
°C
Wind Press
QNH
hPa
Press
MSL
hPa
Rain since
9am
mm
Dir  Spd
km/h
Gust
km/h
Spd
kts
Gust
kts
06/05:10am 9.7 3.4 9.7 100 0.0 NW 33 37 18 20 1018.0 - 4.0
06/05:00am 9.7 3.0 9.7 100 0.0 NW 35 37 19 20 1018.1 - 4.0
06/04:50am 9.7 3.0 9.7 100 0.0 NW 35 41 19 22 1017.9 - 4.0
06/04:40am 9.7 3.0 9.7 100 0.0 NW 35 37 19 20 1017.7 - 4.0
06/04:30am 9.7 3.0 9.7 100 0.0 NW 35 37 19 20 1017.6 - 3.8
06/04:20am 9.6 2.9 9.6 100 0.0 NW 35 37 19 20 1017.6 - 3.8
06/04:10am 9.6 3.3 9.6 100 0.0 NW 33 37 18 20 1017.4 - 3.8
06/04:00am 9.5 3.3 9.5 100 0.0 NNW 32 35 17 19 1017.6 - 3.8
06/03:50am 9.5 3.7 9.5 100 0.0 NW 30 32 16 17 1017.6 - 3.6
06/03:40am 9.5 3.3 9.5 100 0.0 NNW 32 35 17 19 1017.5 - 3.4
06/03:30am 9.5 3.7 9.5 100 0.0 NW 30 33 16 18 1017.6 - 3.2
06/03:20am 9.5 4.5 9.5 100 0.0 NNW 26 28 14 15 1017.5 - 3.2
06/03:10am 9.5 4.1 9.5 100 0.0 NNW 28 30 15 16 1017.6 - 3.2
06/03:00am 9.5 4.1 9.5 100 0.0 NNW 28 32 15 17 1017.5 - 3.0
06/02:50am 9.5 4.5 9.5 100 0.0 NNW 26 30 14 16 1017.6 - 2.6
06/02:40am 9.4 3.6 9.4 100 0.0 NNW 30 32 16 17 1017.6 - 2.4
06/02:30am 9.5 4.5 9.5 100 0.0 NNW 26 30 14 16 1017.4 - 2.2
06/02:20am 9.4 4.0 9.4 100 0.0 NNW 28 32 15 17 1017.6 - 2.0
06/02:10am 9.4 4.0 9.4 100 0.0 NNW 28 30 15 16 1017.7 - 1.6
06/02:00am 9.4 4.4 9.4 100 0.0 NNW 26 28 14 15 1017.6 - 1.4
06/01:50am 9.4 4.0 9.4 100 0.0 NW 28 30 15 16 1017.6 - 1.4
06/01:40am 9.4 4.7 9.4 100 0.0 NW 24 26 13 14 1017.6 - 1.2
06/01:30am 9.4 4.4 9.4 100 0.0 NW 26 30 14 16 1017.6 - 1.0
06/01:20am 9.5 4.1 9.4 99 0.1 NW 28 32 15 17 1017.8 - 0.8
06/01:10am 9.6 3.8 9.3 98 0.2 NW 30 33 16 18 1017.5 - 0.4
06/01:00am 9.7 4.6 9.3 97 0.2 NW 26 30 14 16 1017.7 - 0.4
06/12:50am 10.0 4.1 9.1 94 0.5 NW 30 37 16 20 1017.8 - 0.2
06/12:40am 10.2 4.3 8.9 92 0.7 NW 30 35 16 19 1017.6 - 0.0
06/12:30am 10.4 3.1 8.7 89 0.9 NW 37 39 20 21 1017.5 - 0.0
06/12:20am 10.5 3.5 8.5 87 1.0 NW 35 41 19 22 1017.3 - 0.0
06/12:10am 10.7 3.4 8.6 87 1.1 NW 37 43 20 23 1017.3 - 0.0
06/12:00am 10.8 3.7 8.2 84 1.3 NW 35 41 19 22 1017.2 - 0.0
 
Date/Time
EST
Temp
°C
App
Temp
°C
Dew
Point
°C
Rel
Hum
%
Delta-T
°C
Wind Press
QNH
hPa
Press
MSL
hPa
Rain since
9am
mm
Dir  Spd
km/h
Gust
km/h
Spd
kts
Gust
kts
05/11:50pm 10.8 3.7 8.1 83 1.4 NW 35 41 19 22 1017.3 - 0.0
05/11:40pm 11.0 3.9 8.0 82 1.5 NW 35 41 19 22 1017.5 - 0.0
05/11:30pm 10.9 4.2 8.0 82 1.5 NW 33 41 18 22 1017.4 - 0.0
05/11:20pm 11.0 3.5 7.8 80 1.6 NW 37 43 20 23 1017.4 - 0.0
05/11:10pm 10.8 2.9 7.9 82 1.5 NW 39 46 21 25 1017.3 - 0.0
05/11:00pm 10.8 4.0 7.9 82 1.5 NW 33 37 18 20 1017.4 - 0.0
05/10:50pm 10.9 3.3 7.7 80 1.6 NW 37 43 20 23 1017.4 - 0.0
05/10:40pm 10.8 3.6 7.8 82 1.5 NW 35 39 19 21 1017.5 - 0.0
05/10:30pm 10.8 4.0 7.8 82 1.5 WNW 33 39 18 21 1017.2 - 0.0
05/10:20pm 10.7 3.2 7.9 83 1.4 NW 37 44 20 24 1017.3 - 0.0
05/10:10pm 10.8 2.9 7.8 82 1.5 NW 39 44 21 24 1017.4 - 0.0
05/10:00pm 10.8 2.5 7.8 82 1.5 NW 41 48 22 26 1017.4 - 0.0
05/09:50pm 10.8 3.2 7.7 81 1.6 NW 37 41 20 22 1017.2 - 0.0
05/09:40pm 10.9 2.9 7.5 79 1.7 NW 39 46 21 25 1017.1 - 0.0
05/09:30pm 10.9 2.9 7.5 79 1.7 NW 39 44 21 24 1017.1 - 0.0
05/09:20pm 10.9 2.9 7.5 79 1.7 NW 39 43 21 23 1017.1 - 0.0
05/09:10pm 10.8 3.2 7.6 80 1.6 NW 37 44 20 24 1016.9 - 0.0
05/09:00pm 10.9 2.9 7.5 79 1.7 NW 39 43 21 23 1017.0 - 0.0
05/08:50pm 10.8 3.2 7.4 79 1.7 NW 37 44 20 24 1017.0 - 0.0
05/08:40pm 10.8 2.8 7.4 79 1.7 NW 39 43 21 23 1016.9 - 0.0
05/08:30pm 10.7 3.1 7.4 80 1.6 NW 37 41 20 22 1016.7 - 0.0
05/08:20pm 10.7 3.4 7.4 80 1.6 NW 35 39 19 21 1016.8 - 0.0
05/08:10pm 10.6 3.0 7.4 80 1.6 NW 37 39 20 21 1016.8 - 0.0
05/08:00pm 10.6 3.3 7.3 80 1.6 NW 35 43 19 23 1016.7 - 0.0
05/07:50pm 10.7 3.0 7.1 78 1.8 NW 37 43 20 23 1016.4 - 0.0
05/07:40pm 10.7 2.3 7.2 79 1.7 NW 41 50 22 27 1016.6 - 0.0
05/07:30pm 10.7 3.0 7.1 78 1.8 NW 37 41 20 22 1016.6 - 0.0
05/07:20pm 10.6 2.5 7.0 78 1.8 NW 39 43 21 23 1016.7 - 0.0
05/07:10pm 10.5 3.5 6.8 78 1.8 NW 33 43 18 23 1016.3 - 0.0
05/07:00pm 10.4 3.6 7.0 79 1.7 NW 32 35 17 19 1016.5 - 0.0
05/06:50pm 10.5 2.4 6.9 78 1.8 NW 39 48 21 26 1016.4 - 0.0
05/06:40pm 10.4 3.0 6.7 78 1.8 NW 35 39 19 21 1016.1 - 0.0
05/06:30pm 10.3 3.2 6.6 78 1.8 NW 33 37 18 20 1015.9 - 0.0
05/06:20pm 10.3 1.7 6.7 78 1.8 WNW 41 48 22 26 1016.2 - 0.0
05/06:10pm 10.3 2.5 6.6 78 1.8 WNW 37 44 20 24 1016.3 - 0.0
05/06:00pm 10.4 2.2 6.4 76 2.0 WNW 39 48 21 26 1016.2 - 0.0
05/05:50pm 10.4 3.3 6.3 76 2.0 WNW 33 41 18 22 1016.0 - 0.0
05/05:40pm 10.5 2.6 6.1 74 2.1 WNW 37 41 20 22 1016.0 - 0.0
05/05:30pm 10.4 2.5 6.2 75 2.0 WNW 37 41 20 22 1015.8 - 0.0
05/05:20pm 10.4 2.1 6.1 75 2.1 WNW 39 46 21 25 1015.6 - 0.0
05/05:10pm 10.4 2.5 6.0 74 2.1 WNW 37 43 20 23 1015.6 - 0.0
05/05:00pm 10.4 2.9 6.3 76 2.0 NW 35 41 19 22 1015.5 - 0.0
05/04:50pm 10.4 2.5 6.0 74 2.1 WNW 37 46 20 25 1015.2 - 0.0
05/04:40pm 10.4 2.4 5.9 73 2.2 NW 37 44 20 24 1015.2 - 0.0
05/04:30pm 10.4 2.5 6.3 76 2.0 NW 37 43 20 23 1015.2 - 0.0
05/04:20pm 10.4 2.9 6.1 75 2.1 NW 35 41 19 22 1015.0 - 0.0
05/04:10pm 10.4 2.9 6.4 76 2.0 WNW 35 43 19 23 1015.3 - 0.0
05/04:00pm 10.3 3.7 6.1 75 2.0 WNW 30 35 16 19 1015.1 - 0.0
05/03:50pm 10.3 4.1 6.1 75 2.0 WNW 28 33 15 18 1015.1 - 0.0
05/03:40pm 10.3 2.4 6.0 75 2.1 WNW 37 43 20 23 1015.1 - 0.0
05/03:30pm 10.2 3.2 5.9 74 2.1 WNW 32 37 17 20 1015.1 - 0.0
05/03:20pm 10.1 3.5 5.9 75 2.0 WNW 30 43 16 23 1015.0 - 0.0
05/03:10pm 10.1 3.9 6.1 76 1.9 WNW 28 33 15 18 1015.1 - 0.0
05/03:00pm 10.1 4.6 5.8 74 2.1 WNW 24 26 13 14 1015.2 - 0.0
05/02:50pm 10.0 4.1 5.6 74 2.1 WNW 26 32 14 17 1015.2 - 0.0
05/02:40pm 10.0 4.9 5.9 75 2.0 WNW 22 26 12 14 1015.2 - 0.0
05/02:30pm 9.9 3.6 5.9 76 1.9 WNW 28 35 15 19 1015.2 - 0.0
05/02:20pm 9.8 3.1 5.8 76 1.9 WNW 30 35 16 19 1015.1 - 0.0
05/02:10pm 9.9 3.6 5.6 74 2.1 WNW 28 32 15 17 1014.9 - 0.0
05/02:00pm 10.0 3.7 5.5 73 2.1 WNW 28 33 15 18 1015.1 - 0.0
05/01:50pm 9.9 3.5 5.3 73 2.2 WNW 28 32 15 17 1015.2 - 0.0
05/01:40pm 9.9 1.8 5.1 72 2.3 WNW 37 43 20 23 1015.1 - 0.0
05/01:30pm 9.9 1.7 4.9 71 2.4 WNW 37 46 20 25 1015.0 - 0.0
05/01:20pm 10.1 2.9 5.0 70 2.4 WNW 32 37 17 20 1015.3 - 0.0
05/01:10pm 10.1 2.7 4.8 69 2.5 WNW 33 37 18 20 1015.2 - 0.0
05/01:00pm 10.1 2.8 5.5 73 2.2 WNW 33 44 18 24 1015.4 - 0.0
05/12:50pm 10.0 2.2 4.8 70 2.4 WNW 35 44 19 24 1015.1 - 0.0
05/12:40pm 9.9 0.5 4.5 69 2.5 WNW 43 48 23 26 1015.3 - 0.0
05/12:30pm 9.7 -1.0 4.4 69 2.5 WNW 50 56 27 30 1015.2 - 0.0
05/12:20pm 9.7 0.1 4.5 70 2.4 WNW 44 52 24 28 1015.2 - 0.0
05/12:10pm 9.8 1.6 4.9 71 2.3 WNW 37 43 20 23 1015.4 - 0.0
05/12:00pm 9.8 2.0 4.7 70 2.4 WNW 35 43 19 23 1015.4 - 0.0
05/11:50am 9.6 -0.8 4.2 69 2.5 WNW 48 57 26 31 1015.4 - 0.0
05/11:40am 10.0 2.9 5.6 74 2.1 WNW 32 37 17 20 1015.5 - 0.0
05/11:30am 9.9 1.1 5.5 74 2.1 WNW 41 54 22 29 1015.8 - 0.0
05/11:20am 9.4 0.0 4.5 71 2.3 WNW 43 54 23 29 1015.3 - 0.0
05/11:10am 9.2 -1.4 4.9 74 2.0 WNW 50 56 27 30 1015.5 - 0.0
05/11:00am 9.2 0.2 4.7 73 2.1 WNW 41 46 22 25 1015.5 - 0.0
05/10:50am 9.1 0.5 4.4 72 2.2 WNW 39 46 21 25 1015.5 - 0.0
05/10:40am 8.9 -0.1 4.6 74 2.0 WNW 41 44 22 24 1015.8 - 0.0
05/10:30am 8.8 -1.3 3.8 71 2.3 WNW 46 56 25 30 1015.5 - 0.0
05/10:20am 8.7 -0.8 3.9 72 2.2 WNW 43 56 23 30 1015.7 - 0.0
05/10:10am 8.7 -0.4 4.2 73 2.1 W 41 52 22 28 1015.8 - 0.0
05/10:00am 8.7 0.4 4.3 74 2.0 W 37 44 20 24 1015.8 - 0.0
05/09:50am 8.6 0.3 4.1 73 2.1 WNW 37 39 20 21 1015.7 - 0.0
05/09:40am 8.3 -0.8 4.0 74 2.0 W 41 48 22 26 1015.7 - 0.0
05/09:30am 8.1 -2.0 4.0 75 1.9 W 46 56 25 30 1015.6 - 0.0
05/09:20am 8.1 -1.4 4.1 76 1.8 WNW 43 52 23 28 1015.6 - 0.0
05/09:10am 8.2 -0.9 4.0 75 1.9 WNW 41 52 22 28 1015.5 - 0.0
05/09:00am 8.1 -0.1 4.6 78 1.6 WNW 37 44 20 24 1015.4 - 1.6
05/08:50am 7.9 -1.5 4.3 78 1.6 WNW 43 50 23 27 1015.0 - 1.6
05/08:40am 7.8 -0.8 4.5 79 1.5 WNW 39 43 21 23 1015.2 - 1.6
05/08:30am 7.7 -0.1 4.7 81 1.4 WNW 35 41 19 22 1015.2 - 1.6
05/08:20am 7.6 -1.0 4.7 82 1.3 WNW 39 54 21 29 1015.0 - 1.6
05/08:10am 7.5 -2.5 4.3 80 1.5 WNW 46 54 25 29 1014.7 - 1.6
05/08:00am 7.5 -2.1 4.3 80 1.5 WNW 44 56 24 30 1014.3 - 1.6
05/07:50am 7.4 -2.2 4.4 81 1.4 WNW 44 52 24 28 1014.6 - 1.6
05/07:40am 7.4 -0.5 4.3 81 1.4 WNW 35 44 19 24 1014.2 - 1.6
05/07:30am 7.3 0.8 4.5 82 1.3 WNW 28 33 15 18 1014.3 - 1.6
05/07:20am 7.4 0.1 4.6 82 1.3 WNW 32 41 17 22 1014.3 - 1.6
05/07:10am 7.4 0.8 4.4 81 1.4 WNW 28 43 15 23 1014.1 - 1.6
05/07:00am 7.4 0.1 4.7 83 1.2 WNW 32 37 17 20 1014.1 - 1.6
05/06:50am 7.4 0.1 4.7 83 1.2 WNW 32 41 17 22 1013.6 - 1.6
05/06:40am 7.4 0.6 5.0 85 1.1 WNW 30 35 16 19 1013.5 - 1.6
05/06:30am 7.6 -0.2 5.0 83 1.2 WNW 35 41 19 22 1013.6 - 1.6
05/06:20am 7.7 0.5 5.0 83 1.3 WNW 32 41 17 22 1013.5 - 1.6
05/06:10am 7.8 -0.8 4.9 82 1.3 WNW 39 43 21 23 1013.2 - 1.6
05/06:00am 7.8 -0.7 5.3 84 1.2 WNW 39 44 21 24 1012.9 - 1.6
05/05:50am 7.9 -0.9 5.4 84 1.2 WNW 41 52 22 28 1012.8 - 1.6
05/05:40am 8.0 -1.2 5.4 84 1.2 WNW 43 50 23 27 1012.7 - 1.6
05/05:30am 8.0 -1.3 5.7 85 1.1 WNW 44 57 24 31 1012.9 - 1.6
05/05:20am 8.1 -2.0 5.7 85 1.1 WNW 48 52 26 28 1012.3 - 1.6
05/05:10am 8.2 -3.0 5.7 84 1.2 WNW 54 61 29 33 1012.1 - 1.6
05/05:00am 8.2 -2.3 5.7 84 1.2 WNW 50 61 27 33 1012.2 - 1.6
05/04:50am 8.2 -1.9 5.6 84 1.2 WNW 48 59 26 32 1011.9 - 1.6
05/04:40am 8.1 -1.2 5.8 85 1.1 WNW 44 56 24 30 1011.8 - 1.6
05/04:30am 8.2 -1.1 6.0 86 1.0 WNW 44 52 24 28 1011.7 - 1.6
05/04:20am 8.1 -1.2 6.0 87 1.0 WNW 44 50 24 27 1011.5 - 1.6
05/04:10am 8.1 -1.2 6.1 87 1.0 WNW 44 52 24 28 1011.4 - 1.6
05/04:00am 7.9 -0.3 6.4 90 0.7 WNW 39 44 21 24 1011.7 - 1.6
05/03:50am 8.0 -0.3 6.1 88 0.9 WNW 39 43 21 23 1011.5 - 1.6
05/03:40am 8.0 -1.9 6.4 90 0.8 WNW 48 57 26 31 1011.3 - 1.6
05/03:30am 8.3 -3.3 6.0 85 1.1 WNW 56 61 30 33 1011.1 - 1.6
05/03:20am 8.3 -2.5 5.9 85 1.1 WNW 52 57 28 31 1010.8 - 1.6
05/03:10am 8.2 -3.0 6.1 87 1.0 WNW 54 61 29 33 1010.8 - 1.6
05/03:00am 8.2 -2.6 6.1 87 1.0 WNW 52 57 28 31 1011.0 - 1.6
05/03:50am 8.1 -2.7 6.2 88 0.9 WNW 52 56 28 30 1011.0 - 1.6
05/03:40am 8.2 -1.8 6.1 87 1.0 WNW 48 54 26 29 1011.1 - 1.6
05/03:30am 8.1 -1.8 6.4 89 0.8 WNW 48 56 26 30 1011.5 - 1.6
05/03:20am 8.2 -2.2 5.9 85 1.1 WNW 50 56 27 30 1011.2 - 1.6
05/03:10am 8.2 -1.9 5.9 85 1.1 WNW 48 52 26 28 1011.3 - 1.6
05/03:00am 8.2 -1.5 6.0 86 1.0 WNW 46 56 25 30 1011.6 - 1.6
05/02:50am 8.2 -1.1 5.7 84 1.2 WNW 44 50 24 27 1011.4 - 1.6
05/02:40am 8.0 -1.7 6.0 87 0.9 WNW 46 54 25 29 1011.6 - 1.6
05/02:30am 8.1 -2.3 5.9 86 1.0 WNW 50 57 27 31 1011.3 - 1.6
05/02:20am 8.2 -3.3 6.1 87 1.0 WNW 56 63 30 34 1011.1 - 1.6
05/02:10am 8.2 -3.5 6.1 87 1.0 WNW 57 65 31 35 1011.4 - 1.6
05/02:00am 8.3 -3.2 6.1 86 1.0 WNW 56 65 30 35 1011.2 - 1.6
05/01:50am 8.3 -2.8 6.2 87 1.0 WNW 54 59 29 32 1011.2 - 1.6
05/01:40am 8.4 -3.3 6.4 87 1.0 WNW 57 63 31 34 1011.3 - 1.6
05/01:30am 8.3 -3.1 6.5 88 0.9 WNW 56 59 30 32 1010.9 - 1.6
05/01:20am 8.3 -2.4 6.5 88 0.9 WNW 52 61 28 33 1010.7 - 1.6
05/01:10am 8.6 -2.6 5.9 83 1.3 WNW 54 57 29 31 1010.8 - 1.6
05/01:00am 8.7 -2.5 5.8 82 1.4 WNW 54 67 29 36 1011.3 - 1.6
05/12:50am 8.7 -0.9 6.1 84 1.2 W 46 52 25 28 1011.4 - 1.6
05/12:40am 8.6 -0.6 6.2 85 1.2 W 44 48 24 26 1011.4 - 1.6
05/12:30am 8.5 -1.4 6.4 87 1.0 WNW 48 52 26 28 1011.4 - 1.6
05/12:20am 8.5 -1.5 6.1 85 1.1 WNW 48 56 26 30 1011.3 - 1.6
05/12:10am 8.6 -1.1 6.0 84 1.2 WNW 46 50 25 27 1011.4 - 1.6
05/12:00am 8.5 -0.1 6.6 88 0.9 WNW 41 46 22 25 1011.3 - 1.6
 
Date/Time
EST
Temp
°C
App
Temp
°C
Dew
Point
°C
Rel
Hum
%
Delta-T
°C
Wind Press
QNH
hPa
Press
MSL
hPa
Rain since
9am
mm
Dir  Spd
km/h
Gust
km/h
Spd
kts
Gust
kts
04/11:50pm 8.6 -1.2 7.1 90 0.7 W 48 65 26 35 1011.9 - 1.6
04/11:40pm 8.9 0.5 7.2 89 0.8 W 41 48 22 26 1011.8 - 1.6
04/11:30pm 9.0 0.1 6.7 85 1.1 WNW 43 50 23 27 1011.3 - 1.6
04/11:20pm 8.9 -0.1 6.5 85 1.2 WNW 43 48 23 26 1011.4 - 1.6
04/11:10pm 9.0 0.9 6.8 86 1.1 W 39 46 21 25 1011.2 - 1.6
04/11:00pm 9.1 -0.4 6.6 84 1.2 W 46 54 25 29 1011.4 - 1.6
04/10:50pm 9.1 -0.8 6.4 83 1.3 WNW 48 52 26 28 1011.2 - 1.6
04/10:40pm 9.2 -0.8 6.2 81 1.4 W 48 63 26 34 1011.3 - 1.6
04/10:30pm 9.4 -0.6 6.1 80 1.6 W 48 57 26 31 1011.3 - 1.6
04/10:20pm 9.4 -0.6 6.2 80 1.5 W 48 54 26 29 1011.0 - 1.6
04/10:10pm 9.5 -2.0 6.3 80 1.5 W 56 67 30 36 1010.6 - 1.6
04/10:00pm 9.5 -0.9 6.2 80 1.6 W 50 57 27 31 1010.5 - 1.6
04/09:50pm 9.4 -0.8 6.9 84 1.2 W 50 61 27 33 1010.5 - 1.6
04/09:40pm 9.5 -2.0 7.1 85 1.2 WNW 57 78 31 42 1010.6 - 1.6
04/09:30pm 9.8 -0.4 6.8 81 1.5 WNW 50 59 27 32 1009.6 - 1.4
04/09:20pm 10.3 -0.8 6.5 77 1.9 WNW 54 63 29 34 1009.7 - 1.4
04/09:10pm 10.2 -0.6 6.2 76 1.9 WNW 52 61 28 33 1009.0 - 1.4
04/09:00pm 9.9 -0.8 6.4 79 1.7 WNW 52 54 28 29 1009.2 - 1.4
04/08:50pm 9.6 -0.3 6.4 80 1.6 WNW 48 54 26 29 1009.5 - 1.4
04/08:40pm 9.6 -1.5 6.4 80 1.6 WNW 54 59 29 32 1009.3 - 1.4
04/08:30pm 9.8 -1.0 6.1 78 1.8 WNW 52 59 28 32 1009.2 - 1.4
04/08:20pm 10.0 -0.4 6.2 77 1.8 WNW 50 61 27 33 1009.0 - 1.4
04/08:10pm 10.2 -1.1 5.2 71 2.4 WNW 54 67 29 36 1008.7 - 1.4
04/08:00pm 10.5 0.0 5.5 71 2.4 WNW 50 57 27 31 1008.7 - 1.4
04/07:50pm 10.3 0.6 5.9 74 2.1 WNW 46 50 25 27 1008.5 - 1.4
04/07:40pm 10.1 -0.2 6.3 77 1.8 WNW 50 54 27 29 1008.2 - 1.4
04/07:30pm 10.1 -0.6 6.5 78 1.8 WNW 52 54 28 29 1008.1 - 1.4
04/07:20pm 9.9 -2.1 6.4 79 1.7 WNW 59 65 32 35 1007.7 - 1.4
04/07:10pm 9.8 -1.6 6.6 80 1.6 W 56 63 30 34 1007.8 - 1.4
04/07:00pm 9.6 -1.6 7.4 86 1.1 W 56 63 30 34 1007.6 - 1.4
04/06:50pm 10.9 0.8 7.4 79 1.8 WNW 50 56 27 30 1007.5 - 1.0
04/06:40pm 11.2 -1.3 6.2 71 2.4 WNW 61 70 33 38 1006.9 - 1.0
04/06:30pm 11.3 0.1 5.9 69 2.6 WNW 54 61 29 33 1006.4 - 1.0
04/06:20pm 11.4 -0.4 5.5 67 2.8 WNW 57 65 31 35 1005.7 - 1.0
04/06:10pm 11.4 1.9 6.5 72 2.4 WNW 46 56 25 30 1006.2 - 1.0
04/06:00pm 11.4 4.1 7.3 76 2.1 W 35 43 19 23 1006.3 - 1.0
04/05:50pm 11.1 1.9 7.9 81 1.6 WNW 46 61 25 33 1006.3 - 1.0
04/05:40pm 11.2 0.8 7.9 80 1.7 WNW 52 61 28 33 1006.0 - 1.0
04/05:30pm 11.5 1.1 7.8 78 1.9 WNW 52 61 28 33 1005.3 - 1.0
04/05:20pm 11.5 0.1 7.7 77 1.9 WNW 57 65 31 35 1005.2 - 1.0
04/05:10pm 11.3 -1.7 7.2 76 2.0 WNW 65 74 35 40 1004.8 - 1.0
04/05:00pm 11.0 -1.6 7.4 78 1.8 WNW 63 69 34 37 1004.6 - 1.0
04/04:50pm 10.9 -1.8 8.5 85 1.2 WNW 65 80 35 43 1004.6 - 0.8
04/04:40pm 11.7 -0.8 7.8 77 2.0 WNW 63 78 34 42 1004.4 - 0.8
04/04:30pm 12.0 0.8 7.5 74 2.3 WNW 56 70 30 38 1003.5 - 0.8
04/04:20pm 11.5 0.3 8.4 81 1.6 WNW 57 63 31 34 1004.2 - 0.8
04/04:10pm 11.8 0.1 7.8 76 2.0 WNW 59 67 32 36 1004.4 - 0.6
04/04:00pm 11.5 0.9 8.6 82 1.5 WNW 54 61 29 33 1004.0 - 0.6
04/03:50pm 11.7 -0.7 8.1 78 1.8 WNW 63 70 34 38 1003.7 - 0.6
04/03:40pm 11.8 -0.7 7.9 77 2.0 NW 63 69 34 37 1003.6 - 0.6
04/03:30pm 11.9 0.7 8.4 79 1.8 NW 57 69 31 37 1003.5 - 0.6
04/03:20pm 12.1 0.8 8.0 76 2.1 WNW 57 67 31 36 1003.5 - 0.6
04/03:10pm 11.7 1.5 8.6 81 1.6 WNW 52 61 28 33 1003.7 - 0.6
04/03:00pm 11.7 0.6 7.9 77 1.9 WNW 56 61 30 33 1003.7 - 0.6
04/02:50pm 11.7 -0.4 7.6 76 2.1 WNW 61 70 33 38 1003.7 - 0.6
04/02:40pm 12.6 3.0 6.3 65 3.1 WNW 46 57 25 31 1003.4 - 0.6
04/02:30pm 12.5 3.4 6.7 68 2.9 WNW 44 50 24 27 1003.7 - 0.6
04/02:20pm 11.8 1.9 6.4 69 2.7 WNW 48 56 26 30 1003.7 - 0.6
04/02:10pm 10.9 0.0 7.4 79 1.8 WNW 54 61 29 33 1003.9 - 0.6
04/02:00pm 11.7 0.1 6.6 71 2.5 WNW 57 69 31 37 1003.2 - 0.2
04/01:50pm 12.5 1.5 6.8 68 2.8 WNW 54 65 29 35 1003.5 - 0.2
04/01:40pm 12.3 1.3 6.8 69 2.7 WNW 54 65 29 35 1003.1 - 0.2
04/01:30pm 12.7 1.7 6.9 68 2.9 WNW 54 65 29 35 1003.0 - 0.2
04/01:20pm 12.6 0.8 7.4 70 2.6 WNW 59 78 32 42 1002.6 - 0.2
04/01:10pm 12.5 0.4 7.7 72 2.4 WNW 61 72 33 39 1002.5 - 0.2
04/01:00pm 12.2 0.5 7.9 75 2.2 WNW 59 67 32 36 1002.5 - 0.2
04/12:50pm 11.4 2.3 8.3 81 1.6 WNW 46 56 25 30 1003.1 - 0.2
04/12:40pm 11.3 2.6 8.3 82 1.5 WNW 44 54 24 29 1002.9 - 0.2
04/12:30pm 11.7 3.6 8.8 82 1.5 WNW 41 48 22 26 1003.3 - 0.0
04/12:20pm 11.2 2.6 8.7 84 1.3 W 44 57 24 31 1003.4 - 0.0
04/12:10pm 11.0 0.0 8.3 83 1.4 WNW 56 59 30 32 1002.5 - 0.0
04/12:00pm 11.3 1.1 8.5 83 1.4 WNW 52 56 28 30 1002.7 - 0.0
04/11:50am 10.9 -0.2 8.7 86 1.1 WNW 57 65 31 35 1002.6 - 0.0
04/11:40am 10.7 1.0 9.0 89 0.9 WNW 50 57 27 31 1002.7 - 0.0
04/11:30am 10.9 1.5 8.8 87 1.1 WNW 48 54 26 29 1002.6 - 0.0
04/11:20am 11.2 2.4 8.2 82 1.5 WNW 44 48 24 26 1002.8 - 0.0
04/11:10am 10.7 1.3 8.6 87 1.1 WNW 48 59 26 32 1002.9 - 0.0
04/11:00am 10.4 0.7 9.0 91 0.7 WNW 50 61 27 33 1003.0 - 0.0
04/10:50am 10.2 -0.8 9.0 92 0.6 WNW 57 67 31 36 1002.0 - 0.0
04/10:40am 10.0 -2.1 9.2 95 0.4 WNW 63 69 34 37 1002.2 - 0.0
04/10:30am 10.4 -2.1 9.3 93 0.6 WNW 65 76 35 41 1001.7 - 0.0
04/10:20am 11.2 0.4 10.0 92 0.6 WNW 57 70 31 38 1001.5 - 0.0
04/10:10am 12.2 1.6 10.1 87 1.1 WNW 56 65 30 35 1000.9 - 0.0
04/10:00am 12.4 3.8 10.3 87 1.1 WNW 46 56 25 30 1001.3 - 9.8
04/09:50am 12.5 3.1 10.3 86 1.2 WNW 50 59 27 32 1001.2 - 9.8
04/09:40am 12.5 4.6 10.7 89 1.0 WNW 43 52 23 28 1001.2 - 9.8
04/09:30am 13.1 3.8 10.5 84 1.4 WNW 50 63 27 34 1001.4 - 9.8
04/09:20am 13.4 5.0 11.0 85 1.3 WNW 46 52 25 28 1001.0 - 9.8
04/09:10am 13.2 6.6 11.3 88 1.0 WNW 37 44 20 24 1000.5 - 9.8
04/09:00am 12.9 6.1 11.8 93 0.6 WNW 39 44 21 24 1000.3 - 9.8
04/08:50am 12.7 6.1 12.6 99 0.1 WNW 39 44 21 24 1000.2 - 9.8
04/08:40am 12.5 5.1 12.5 100 0.0 WNW 43 52 23 28 1000.3 - 9.8
04/08:30am 12.7 6.9 12.7 100 0.0 WNW 35 39 19 21 1000.4 - 9.8
04/08:20am 12.7 6.5 12.7 100 0.0 WNW 37 43 20 23 1000.0 - 9.8
04/08:10am 12.8 6.3 12.8 100 0.0 WNW 39 48 21 26 1000.1 - 9.8
04/08:00am 12.7 5.8 12.7 100 0.0 NW 41 46 22 25 999.5 - 9.6
04/07:50am 12.6 5.6 12.6 100 0.0 NW 41 46 22 25 999.4 - 9.6
04/07:40am 12.5 6.3 12.5 100 0.0 NW 37 41 20 22 999.4 - 9.4
04/07:30am 12.4 5.7 12.4 100 0.0 NW 39 44 21 24 999.2 - 9.4
04/07:20am 12.4 6.5 12.4 100 0.0 NW 35 41 19 22 998.9 - 9.2
04/07:10am 12.4 7.1 12.4 100 0.0 NW 32 37 17 20 - - 8.8
04/07:00am 12.3 8.5 12.3 100 0.0 NW 24 26 13 14 998.7 - 8.8
04/06:50am 12.3 9.2 12.3 100 0.0 NW 20 22 11 12 998.6 - 8.8
04/06:40am 12.3 9.8 12.3 100 0.0 NW 17 19 9 10 998.5 - 8.8
04/06:30am 12.3 8.8 12.3 100 0.0 NW 22 24 12 13 998.4 - 8.8
04/06:20am 12.3 10.2 12.3 100 0.0 WNW 15 22 8 12 998.3 - 8.6
04/06:10am 12.5 13.3 12.5 100 0.0 CALM 0 0 0 0 997.7 - 8.6
04/06:00am 12.4 12.4 12.4 100 0.0 NE 4 6 2 3 997.3 - 8.6
04/05:50am 12.6 12.1 12.6 100 0.0 NNW 7 13 4 7 997.6 - 8.6
04/05:40am 12.5 11.2 12.5 100 0.0 WNW 11 15 6 8 998.1 - 8.4
04/05:30am 12.5 10.8 12.5 100 0.0 WNW 13 15 7 8 998.6 - 8.0
04/05:20am 12.5 9.7 12.5 100 0.0 WNW 19 20 10 11 998.7 - 8.0
04/05:10am 12.2 9.3 12.2 100 0.0 WNW 19 24 10 13 - - 7.6
04/05:00am 12.0 9.8 12.0 100 0.0 W 15 17 8 9 998.8 - 7.2
04/04:50am 11.9 9.3 11.9 100 0.0 W 17 17 9 9 998.6 - 6.6
04/04:40am 11.8 10.3 11.8 100 0.0 WNW 11 13 6 7 998.4 - 5.8
04/04:30am 11.9 10.0 11.9 100 0.0 NW 13 13 7 7 998.9 - 4.6
04/04:20am 11.9 10.8 11.9 100 0.0 WNW 9 13 5 7 999.1 - 4.0
04/04:10am 11.9 10.4 11.8 99 0.1 NW 11 13 6 7 999.1 - 3.4
04/04:00am 12.0 10.1 11.9 99 0.1 NW 13 13 7 7 999.6 - 2.4
04/03:50am 12.0 10.8 11.6 97 0.2 NW 9 11 5 6 999.7 - 1.6
04/03:40am 12.2 11.1 11.8 97 0.2 WNW 9 11 5 6 999.4 - 1.0
04/03:30am 12.4 11.7 11.9 97 0.3 WNW 7 9 4 5 999.7 - 0.6
04/03:20am 12.4 11.8 11.7 95 0.4 W 6 7 3 4 1000.0 - 0.6
04/03:10am 12.4 11.3 11.8 96 0.3 W 9 11 5 6 1000.2 - 0.6
04/03:00am 12.3 11.5 11.6 95 0.4 W 7 7 4 4 1000.4 - 0.6
04/02:50am 12.3 11.1 11.7 96 0.3 WNW 9 11 5 6 1000.8 - 0.6
04/02:40am 12.3 10.8 11.9 97 0.2 WNW 11 11 6 6 1001.1 - 0.6
04/02:30am 12.4 11.8 11.6 95 0.4 NW 6 9 3 5 1001.5 - 0.6
04/02:20am 12.4 11.8 11.8 96 0.3 NW 6 7 3 4 1001.6 - 0.6
04/02:10am 12.4 11.3 11.8 96 0.3 NW 9 11 5 6 1001.8 - 0.6
04/02:00am 12.5 11.9 11.6 94 0.5 WNW 6 11 3 6 1002.0 - 0.6
04/01:50am 12.7 12.1 11.8 94 0.5 NW 6 11 3 6 1002.4 - 0.6
04/01:40am 12.7 12.0 11.4 92 0.7 WSW 6 7 3 4 1002.6 - 0.6
04/01:30am 12.7 11.8 11.2 91 0.8 SW 7 9 4 5 1002.7 - 0.6
04/01:20am 12.6 12.1 10.9 89 0.9 S 4 7 2 4 1002.8 - 0.6
04/01:10am 12.7 11.8 11.2 91 0.8 S 7 9 4 5 1002.6 - 0.6
04/01:00am 12.5 12.2 11.4 93 0.6 WNW 4 6 2 3 1003.3 - 0.6
04/12:50am 12.6 12.3 11.5 93 0.6 SSW 4 4 2 2 1003.6 - 0.6
04/12:40am 12.6 11.9 11.4 92 0.7 SSE 6 11 3 6 1003.7 - 0.6
04/12:30am 12.8 11.1 11.3 91 0.8 SSE 11 15 6 8 1003.6 - 0.6
04/12:20am 12.9 11.8 10.8 87 1.1 S 7 11 4 6 1004.0 - 0.6
04/12:10am 12.8 11.8 10.9 88 1.0 S 7 9 4 5 1004.4 - 0.6
04/12:00am 12.7 10.5 10.9 89 1.0 SSE 13 17 7 9 1004.4 - 0.6
 
Date/Time
EST
Temp
°C
App
Temp
°C
Dew
Point
°C
Rel
Hum
%
Delta-T
°C
Wind Press
QNH
hPa
Press
MSL
hPa
Rain since
9am
mm
Dir  Spd
km/h
Gust
km/h
Spd
kts
Gust
kts
03/11:50pm 12.7 9.8 10.9 89 1.0 SSE 17 19 9 10 1004.3 - 0.6
03/11:40pm 12.6 9.2 11.1 91 0.8 SSE 20 24 11 13 1004.3 - 0.6
03/11:30pm 12.6 8.8 11.2 91 0.8 SSE 22 24 12 13 1004.4 - 0.6
03/11:20pm 12.7 9.3 11.3 91 0.8 SSE 20 22 11 12 1004.5 - 0.6
03/11:10pm 12.8 9.6 11.2 90 0.9 SSE 19 22 10 12 1005.0 - 0.6
03/11:00pm 12.9 9.5 11.2 89 0.9 SSE 20 22 11 12 1005.2 - 0.6
03/10:50pm 13.1 9.7 11.2 88 1.0 SSE 20 24 11 13 1005.3 - 0.6
03/10:40pm 13.2 9.9 10.8 85 1.3 SSE 19 20 10 11 1005.4 - 0.6
03/10:30pm 13.4 10.2 11.2 86 1.2 S 19 20 10 11 1005.4 - 0.6
03/10:20pm 13.4 10.2 11.2 86 1.2 S 19 20 10 11 1005.8 - 0.6
03/10:10pm 13.8 10.3 11.0 83 1.5 SSE 20 22 11 12 1005.5 - 0.6
03/10:00pm 13.8 10.2 10.6 81 1.7 S 20 22 11 12 1006.0 - 0.6
03/09:50pm 13.6 9.7 10.7 82 1.6 S 22 24 12 13 1005.9 - 0.6
03/09:40pm 13.6 9.4 11.0 84 1.4 SSE 24 26 13 14 1005.8 - 0.6
03/09:30pm 13.6 9.7 10.9 84 1.5 SSE 22 26 12 14 1005.8 - 0.6
03/09:20pm 14.0 9.7 10.6 80 1.9 SSE 24 26 13 14 1006.2 - 0.6
03/09:10pm 13.7 9.5 11.0 84 1.5 S 24 24 13 13 1006.4 - 0.6
03/09:00pm 13.7 9.4 10.9 83 1.5 SSE 24 26 13 14 1006.3 - 0.6
03/08:50pm 13.6 8.9 10.8 83 1.5 SSE 26 28 14 15 1006.1 - 0.6
03/08:40pm 13.6 9.0 11.0 84 1.4 SSE 26 28 14 15 1006.1 - 0.6
03/08:30pm 13.6 9.4 11.1 85 1.4 SSE 24 26 13 14 1006.2 - 0.6
03/08:20pm 13.5 9.0 11.4 87 1.2 SSE 26 28 14 15 1006.5 - 0.6
03/08:10pm 13.5 9.1 11.6 88 1.1 SSE 26 28 14 15 1006.3 - 0.6
03/08:00pm 13.5 9.2 12.0 91 0.8 SSE 26 28 14 15 1006.4 - 0.6
03/07:50pm 13.7 9.0 11.9 89 1.0 SSE 28 30 15 16 1006.3 - 0.6
03/07:40pm 13.6 9.6 11.8 89 1.0 SSE 24 28 13 15 1006.4 - 0.6
03/07:30pm 13.6 9.9 12.8 95 0.5 SSE 24 24 13 13 1006.4 - 0.6
03/07:20pm 13.7 10.1 13.2 97 0.3 S 24 24 13 13 1006.4 - 0.6
03/07:10pm 13.7 10.9 13.1 96 0.3 SSE 20 22 11 12 1006.3 - 0.6
03/07:00pm 13.6 11.1 13.4 99 0.1 SSE 19 20 10 11 1006.6 - 0.6
03/06:50pm 13.7 11.2 13.6 99 0.1 SSE 19 20 10 11 1006.4 - 0.6
03/06:40pm 13.7 11.6 13.7 100 0.0 SSE 17 19 9 10 1006.7 - 0.6
03/06:30pm 14.0 12.4 14.0 100 0.0 SSE 15 17 8 9 1006.8 - 0.6
03/06:20pm 14.0 12.8 13.9 99 0.1 SSE 13 13 7 7 1007.1 - 0.4
03/06:10pm 14.1 13.6 13.8 98 0.2 SE 9 9 5 5 1007.2 - 0.4
03/06:00pm 14.1 13.6 13.7 97 0.2 SE 9 11 5 6 1007.5 - 0.4
03/05:50pm 14.0 13.4 13.6 97 0.2 SSE 9 11 5 6 1007.6 - 0.4
03/05:40pm 14.1 13.6 13.8 98 0.2 SE 9 9 5 5 1007.5 - 0.4
03/05:30pm 14.1 13.6 13.7 97 0.2 ESE 9 11 5 6 1007.3 - 0.4
03/05:20pm 14.2 14.2 13.7 97 0.3 ESE 6 7 3 4 1007.5 - 0.4
03/05:10pm 14.4 14.8 13.8 96 0.3 SE 4 6 2 3 1007.7 - 0.2
03/05:00pm 14.3 14.3 13.7 96 0.3 S 6 6 3 3 1007.8 - 0.2
03/04:50pm 14.5 14.1 14.0 97 0.3 S 9 11 5 6 1008.1 - 0.2
03/04:40pm 14.9 14.1 14.1 95 0.5 SSW 11 13 6 7 1008.1 - 0.0
03/04:30pm 15.1 14.2 13.6 91 0.9 W 11 15 6 8 1008.2 - 0.0
03/04:20pm 15.1 14.2 13.7 91 0.8 WNW 11 15 6 8 1008.3 - 0.0
03/04:10pm 15.2 15.0 13.7 91 0.9 WNW 7 11 4 6 1008.5 - 0.0
03/04:00pm 15.1 14.2 13.7 91 0.8 W 11 13 6 7 1008.8 - 0.0
03/03:50pm 15.2 14.7 13.7 91 0.9 W 9 11 5 6 1008.9 - 0.0
03/03:40pm 15.2 14.3 13.6 90 0.9 W 11 13 6 7 1009.0 - 0.0
03/03:30pm 15.2 13.5 13.7 91 0.9 W 15 17 8 9 1009.2 - 0.0
03/03:20pm 15.1 13.8 13.7 91 0.8 WSW 13 15 7 8 1009.1 - 0.0
03/03:10pm 15.0 14.4 13.5 91 0.9 W 9 11 5 6 1008.9 - 0.0
03/03:00pm 15.1 15.0 13.3 89 1.0 W 6 7 3 4 1009.3 - 0.0
03/02:50pm 15.0 15.6 13.1 88 1.1 WNW 2 4 1 2 1009.4 - 0.0
03/02:40pm 14.8 14.6 12.9 88 1.1 W 6 7 3 4 1009.7 - 0.0
03/02:30pm 14.7 13.9 12.8 88 1.1 W 9 9 5 5 1010.0 - 0.0
03/02:20pm 14.5 13.1 12.3 87 1.2 W 11 11 6 6 1010.0 - 0.0
03/02:10pm 14.3 13.1 12.7 90 0.9 W 11 11 6 6 1010.1 - 0.0
03/02:00pm 14.0 12.7 12.5 91 0.8 W 11 11 6 6 1010.3 - 0.0
03/01:50pm 13.9 13.0 12.7 92 0.7 W 9 9 5 5 1010.6 - 0.0
03/01:40pm 13.8 13.2 12.3 91 0.8 W 7 9 4 5 1010.8 - 0.0
03/01:30pm 13.7 12.6 11.8 88 1.1 NW 9 11 5 6 1011.0 - 0.0
03/01:20pm 13.8 12.3 12.0 89 1.0 NW 11 11 6 6 1011.2 - 0.0
03/01:10pm 13.9 12.3 11.5 85 1.3 NW 11 11 6 6 1011.3 - 0.0
03/01:00pm 14.0 12.9 12.1 88 1.1 NW 9 11 5 6 1011.3 - 0.0
03/12:50pm 14.1 13.1 12.4 89 1.0 NW 9 9 5 5 1011.4 - 0.0
03/12:40pm 14.2 12.9 11.4 83 1.6 N 9 11 5 6 1011.5 - 0.0
03/12:30pm 14.2 13.7 11.9 86 1.3 NNW 6 7 3 4 1011.4 - 0.0
03/12:20pm 14.1 14.3 12.0 87 1.2 WNW 2 6 1 3 1011.5 - 0.0
03/12:10pm 14.0 13.5 12.2 89 1.0 NW 6 7 3 4 1011.6 - 0.0
03/12:00pm 13.9 12.9 12.3 90 0.9 NW 9 11 5 6 1011.8 - 0.0
03/11:50am 14.1 12.4 11.3 83 1.5 WNW 11 13 6 7 1011.9 - 0.0
03/11:40am 14.6 13.2 10.9 78 2.0 WNW 9 11 5 6 1011.9 - 0.0
03/11:30am 14.5 12.8 9.8 73 2.5 W 9 11 5 6 1011.8 - 0.0
03/11:20am 14.2 12.6 10.1 76 2.2 W 9 9 5 5 1011.9 - 0.0
03/11:10am 13.6 11.6 10.3 80 1.8 W 11 15 6 8 1012.0 - 0.0
03/11:00am 13.3 10.6 10.3 82 1.6 W 15 17 8 9 1012.3 - 0.0
03/10:50am 13.1 10.4 10.5 84 1.4 W 15 17 8 9 1012.4 - 0.0
03/10:40am 12.5 10.7 10.7 89 1.0 WNW 11 13 6 7 1012.3 - 0.0
03/10:30am 12.2 10.2 11.5 95 0.4 NW 13 17 7 9 1012.4 - 0.0
03/10:20am 12.3 9.5 11.4 94 0.5 WNW 17 19 9 10 1012.5 - 0.0
03/10:10am 12.4 9.5 11.0 91 0.8 WNW 17 19 9 10 1012.4 - 0.0
03/10:00am 12.2 9.8 11.3 94 0.5 WNW 15 19 8 10 1012.3 - 18.6
03/09:50am 11.7 8.8 10.9 95 0.4 W 17 19 9 10 1012.2 - 18.6
03/09:40am 11.4 8.6 11.3 99 0.1 WNW 17 17 9 9 1012.4 - 18.6
03/09:30am 11.6 8.8 11.5 99 0.1 WNW 17 19 9 10 1012.3 - 18.6
03/09:20am 11.8 9.1 11.8 100 0.0 WNW 17 17 9 9 1012.1 - 18.6
03/09:10am 11.8 9.1 11.7 99 0.1 WNW 17 19 9 10 1012.2 - 18.6
03/09:00am 11.5 8.7 11.5 100 0.0 W 17 19 9 10 1012.1 - 18.6
03/08:50am 11.2 8.4 11.2 100 0.0 W 17 19 9 10 1012.1 - 18.6
03/08:40am 11.1 8.6 11.1 100 0.0 W 15 17 8 9 1012.0 - 18.6
03/08:30am 11.2 8.4 11.2 100 0.0 WNW 17 17 9 9 1011.9 - 18.6
03/08:20am 11.3 8.9 11.3 100 0.0 WNW 15 17 8 9 1011.8 - 18.6
03/08:10am 11.4 9.4 11.4 100 0.0 WNW 13 15 7 8 1011.8 - 18.6
03/08:00am 11.4 9.4 11.4 100 0.0 WNW 13 15 7 8 1011.9 - 18.6
03/07:50am 11.4 9.0 11.4 100 0.0 NW 15 15 8 8 1011.9 - 18.6
03/07:40am 11.3 9.2 11.3 100 0.0 NW 13 15 7 8 1011.9 - 18.6
03/07:30am 11.3 9.2 11.3 100 0.0 NW 13 15 7 8 1011.8 - 18.6
03/07:20am 11.2 9.1 11.2 100 0.0 NW 13 15 7 8 1011.8 - 18.6
03/07:10am 11.2 9.1 11.2 100 0.0 NW 13 15 7 8 1011.8 - 18.6
03/07:00am 11.2 8.7 11.2 100 0.0 WNW 15 17 8 9 1011.7 - 18.6
03/06:50am 11.4 8.6 11.2 99 0.1 WNW 17 19 9 10 1011.7 - 18.6
03/06:40am 11.6 8.4 11.1 97 0.3 WNW 19 20 10 11 1011.8 - 18.6
03/06:30am 11.8 8.9 11.0 95 0.4 NW 17 20 9 11 1011.7 - 18.6

Latest Capital City Observations: Canberra | Sydney | Melbourne | Brisbane | Adelaide | Perth | Hobart | Darwin

Other formats

Comma delimited format used in spreadsheet applications
http://www.bom.gov.au/fwo/IDN60903/IDN60903.99763.axf

JavaScript Object Notation format (JSON) in row-major order
http://www.bom.gov.au/fwo/IDN60903/IDN60903.99763.json

Data quality

Most of these data are generated automatically and are frequently updated. Quality checks on data are not normally performed. It is possible for incorrect values to appear. Refer to information at About Latest Weather Observations and please check the disclaimer before using these data.